Wagoner, OK

1:43 AM CDT on August 28, 2014 (GMT -0500)
Muskogee River Bend | Change Station
CLOSE
Current Station
Personal Weather Station
Location: Muskogee, OK
Elevation: 543 ft
Nearby Weather Stations

Elev 543 ft 35.79 °N, 95.32 °W | Updated 15 seconds ago

Clear
Clear
76.1 °F
Feels Like 76 °F
N
0.0
Wind Variable Wind from North
Gusts 0.0 mph

Today
High -- | Low -- °F
--% Chance of Precip.
Yesterday
High -- | Low -- °F
Precip. -- in
6:50 AM 7:54 PM
Waxing Crescent, 7% visible
Pressure 29.99 in
Visibility 10.0 miles
Clouds Clear
Heat Index 76 °F
Dew Point 72 °F
Humidity 88%
Rainfall 0.00 in
Snow Depth Not available.
UV 0 out of 12
Pollen 9.80 out of 12
Ozone Good
Flu Activity Not available.
METAR KMKO 280553Z AUTO 14006KT 10SM CLR 24/21 A3002 RMK AO2 SLP156 T02440206 10322 20233 403440211 58001

More Conditions Fewer Conditions

Pressure 29.99 in
Visibility 10.0 miles
Clouds Clear
Heat Index 76 °F
Dew Point 72 °F
Humidity 88%
Rainfall 0.00 in
Snow Depth Not available.
UV 0 out of 12
Pollen 9.80 out of 12
Ozone Good
Flu Activity Not available.
METAR KMKO 280553Z AUTO 14006KT 10SM CLR 24/21 A3002 RMK AO2 SLP156 T02440206 10322 20233 403440211 58001

More Conditions Fewer Conditions

10-Day Weather Forecast

Almanac

Astronomy

Aug. 28, 2014 Rise Set
Actual Time 6:50 AM CDT 7:54 PM CDT
Civil Twilight 6:23 AM CDT 8:20 PM CDT
Nautical Twilight 5:52 AM CDT 8:52 PM CDT
Astronomical Twilight 5:19 AM CDT 9:24 PM CDT
Moon 9:36 AM CDT 9:26 PM CDT
Length of Visible Light 13h 57m
Length of Day
13h 04m
Tomorrow will be 2m 9s shorter.
Waxing Crescent, 7% of the Moon is Illuminated
Today
Waxing Crescent
Sep 2
First Quarter
Sep 8
Full
Sep 15
Last Quarter
Sep 24
New

Today's Extremes

State Highs State Lows

Community

WunderPhotos

Upload Photos

1,747,912 photos uploaded!

Nearby

Air Quality

  Air Quality AQ Index Pollutant
Yesterday Moderate
OZONE
Current Good
OZONE
Thursday Good
OZONE
Thursday Good
PM2.5
Friday Good
OZONE
Friday Good
PM2.5
Saturday Good
OZONE
Saturday Good
PM2.5
Sunday Good
OZONE
Sunday Good
PM2.5

Snow Depth

Station Depth Elevation
No new snow has been reported.

Earthquake Activity

City Distance Mag. Time & Date
Stillwater, Oklahoma 104 miles 3.1 10:44 AM CDT
2014-08-27
Perry, Oklahoma 109 miles 3.2 4:41 PM CDT
2014-08-25
, 87 miles 2.9 9:00 AM CDT
2014-08-25
Minimum magnitude displayed is 2.5.

Coastal Water Temperatures

Place Temperature
No Stations Reporting

Nearby Weather Stations